sensor_id;sensor_type;location;lat;lon;timestamp;P1;durP1;ratioP1;P2;durP2;ratioP2
146;SDS011;45999;48.808;9.182;2024-03-22T00:01:46;14.67;;;12.27;;
146;SDS011;45999;48.808;9.182;2024-03-22T00:04:12;16.13;;;12.57;;
146;SDS011;45999;48.808;9.182;2024-03-22T00:06:39;14.80;;;12.27;;
146;SDS011;45999;48.808;9.182;2024-03-22T00:09:08;16.93;;;13.23;;
146;SDS011;45999;48.808;9.182;2024-03-22T00:11:35;14.10;;;12.60;;
146;SDS011;45999;48.808;9.182;2024-03-22T00:14:01;16.77;;;13.07;;
146;SDS011;45999;48.808;9.182;2024-03-22T00:16:28;14.07;;;12.37;;
146;SDS011;45999;48.808;9.182;2024-03-22T00:18:54;16.60;;;13.23;;
146;SDS011;45999;48.808;9.182;2024-03-22T00:21:21;14.10;;;12.60;;
146;SDS011;45999;48.808;9.182;2024-03-22T00:23:47;17.23;;;12.37;;
146;SDS011;45999;48.808;9.182;2024-03-22T00:26:13;16.80;;;13.17;;
146;SDS011;45999;48.808;9.182;2024-03-22T00:28:39;16.37;;;13.20;;
146;SDS011;45999;48.808;9.182;2024-03-22T00:31:05;14.57;;;12.50;;
146;SDS011;45999;48.808;9.182;2024-03-22T00:33:31;15.67;;;12.37;;
146;SDS011;45999;48.808;9.182;2024-03-22T00:35:57;14.33;;;12.80;;
146;SDS011;45999;48.808;9.182;2024-03-22T00:38:23;14.47;;;12.87;;
146;SDS011;45999;48.808;9.182;2024-03-22T00:40:50;14.50;;;12.37;;
146;SDS011;45999;48.808;9.182;2024-03-22T00:43:15;14.93;;;12.43;;
146;SDS011;45999;48.808;9.182;2024-03-22T00:45:41;14.77;;;12.87;;
146;SDS011;45999;48.808;9.182;2024-03-22T00:48:07;17.23;;;14.10;;
146;SDS011;45999;48.808;9.182;2024-03-22T00:50:33;20.10;;;13.33;;
146;SDS011;45999;48.808;9.182;2024-03-22T00:53:00;17.70;;;13.60;;
146;SDS011;45999;48.808;9.182;2024-03-22T00:55:27;15.77;;;13.63;;
146;SDS011;45999;48.808;9.182;2024-03-22T00:57:53;20.37;;;14.60;;
146;SDS011;45999;48.808;9.182;2024-03-22T01:00:19;19.37;;;14.13;;
146;SDS011;45999;48.808;9.182;2024-03-22T01:02:45;17.63;;;14.27;;
146;SDS011;45999;48.808;9.182;2024-03-22T01:05:11;15.53;;;13.43;;
146;SDS011;45999;48.808;9.182;2024-03-22T01:07:37;18.23;;;13.90;;
146;SDS011;45999;48.808;9.182;2024-03-22T01:10:03;17.07;;;14.63;;
146;SDS011;45999;48.808;9.182;2024-03-22T01:12:30;19.10;;;14.53;;
146;SDS011;45999;48.808;9.182;2024-03-22T01:14:56;16.87;;;14.20;;
146;SDS011;45999;48.808;9.182;2024-03-22T01:17:23;19.53;;;14.83;;
146;SDS011;45999;48.808;9.182;2024-03-22T01:19:48;20.20;;;14.90;;
146;SDS011;45999;48.808;9.182;2024-03-22T01:22:15;16.70;;;14.53;;
146;SDS011;45999;48.808;9.182;2024-03-22T01:24:41;17.70;;;15.13;;
146;SDS011;45999;48.808;9.182;2024-03-22T01:27:07;17.17;;;12.60;;
146;SDS011;45999;48.808;9.182;2024-03-22T01:29:32;18.23;;;13.53;;
146;SDS011;45999;48.808;9.182;2024-03-22T01:31:58;16.33;;;13.83;;
146;SDS011;45999;48.808;9.182;2024-03-22T01:34:24;18.17;;;14.87;;
146;SDS011;45999;48.808;9.182;2024-03-22T01:36:51;19.10;;;13.90;;
146;SDS011;45999;48.808;9.182;2024-03-22T01:39:16;21.73;;;15.33;;
146;SDS011;45999;48.808;9.182;2024-03-22T01:41:43;20.90;;;14.80;;
146;SDS011;45999;48.808;9.182;2024-03-22T01:44:09;22.87;;;17.60;;
146;SDS011;45999;48.808;9.182;2024-03-22T01:46:37;19.97;;;15.87;;
146;SDS011;45999;48.808;9.182;2024-03-22T01:49:02;19.77;;;15.83;;
146;SDS011;45999;48.808;9.182;2024-03-22T01:51:29;22.17;;;16.23;;
146;SDS011;45999;48.808;9.182;2024-03-22T01:53:54;19.03;;;16.30;;
146;SDS011;45999;48.808;9.182;2024-03-22T01:56:21;21.23;;;15.50;;
146;SDS011;45999;48.808;9.182;2024-03-22T01:58:47;18.83;;;14.97;;
146;SDS011;45999;48.808;9.182;2024-03-22T02:01:14;18.43;;;16.07;;
146;SDS011;45999;48.808;9.182;2024-03-22T02:03:40;20.27;;;15.90;;
146;SDS011;45999;48.808;9.182;2024-03-22T02:06:06;19.20;;;15.53;;
146;SDS011;45999;48.808;9.182;2024-03-22T02:08:31;18.37;;;15.27;;
146;SDS011;45999;48.808;9.182;2024-03-22T02:10:58;19.40;;;16.13;;
146;SDS011;45999;48.808;9.182;2024-03-22T02:13:23;18.80;;;15.33;;
146;SDS011;45999;48.808;9.182;2024-03-22T02:15:49;18.73;;;15.43;;
146;SDS011;45999;48.808;9.182;2024-03-22T02:18:15;21.83;;;16.40;;
146;SDS011;45999;48.808;9.182;2024-03-22T02:20:41;23.07;;;16.47;;
146;SDS011;45999;48.808;9.182;2024-03-22T02:23:07;19.00;;;16.30;;
146;SDS011;45999;48.808;9.182;2024-03-22T02:25:33;21.27;;;16.50;;
146;SDS011;45999;48.808;9.182;2024-03-22T02:27:59;20.40;;;16.03;;
146;SDS011;45999;48.808;9.182;2024-03-22T02:30:24;19.43;;;16.23;;
146;SDS011;45999;48.808;9.182;2024-03-22T02:32:51;20.60;;;15.80;;
146;SDS011;45999;48.808;9.182;2024-03-22T02:35:16;18.13;;;16.17;;
146;SDS011;45999;48.808;9.182;2024-03-22T02:37:42;18.77;;;16.40;;
146;SDS011;45999;48.808;9.182;2024-03-22T02:40:08;17.73;;;15.43;;
146;SDS011;45999;48.808;9.182;2024-03-22T02:42:34;17.57;;;15.67;;
146;SDS011;45999;48.808;9.182;2024-03-22T02:45:00;18.97;;;15.97;;
146;SDS011;45999;48.808;9.182;2024-03-22T02:47:26;20.07;;;14.93;;
146;SDS011;45999;48.808;9.182;2024-03-22T02:49:51;18.67;;;15.57;;
146;SDS011;45999;48.808;9.182;2024-03-22T02:52:18;20.10;;;16.50;;
146;SDS011;45999;48.808;9.182;2024-03-22T02:54:43;17.53;;;15.73;;
146;SDS011;45999;48.808;9.182;2024-03-22T02:57:09;20.37;;;16.03;;
146;SDS011;45999;48.808;9.182;2024-03-22T02:59:35;19.93;;;15.00;;
146;SDS011;45999;48.808;9.182;2024-03-22T03:02:01;19.67;;;14.93;;
146;SDS011;45999;48.808;9.182;2024-03-22T03:04:26;17.73;;;15.63;;
146;SDS011;45999;48.808;9.182;2024-03-22T03:06:53;20.80;;;15.37;;
146;SDS011;45999;48.808;9.182;2024-03-22T03:09:18;18.07;;;14.17;;
146;SDS011;45999;48.808;9.182;2024-03-22T03:11:45;18.63;;;15.33;;
146;SDS011;45999;48.808;9.182;2024-03-22T03:14:10;18.27;;;15.13;;
146;SDS011;45999;48.808;9.182;2024-03-22T03:16:37;18.90;;;14.67;;
146;SDS011;45999;48.808;9.182;2024-03-22T03:19:02;17.53;;;15.63;;
146;SDS011;45999;48.808;9.182;2024-03-22T03:21:28;17.73;;;14.87;;
146;SDS011;45999;48.808;9.182;2024-03-22T03:23:54;16.37;;;14.10;;
146;SDS011;45999;48.808;9.182;2024-03-22T03:26:20;17.83;;;15.67;;
146;SDS011;45999;48.808;9.182;2024-03-22T03:28:45;18.27;;;14.93;;
146;SDS011;45999;48.808;9.182;2024-03-22T03:31:12;17.10;;;15.30;;
146;SDS011;45999;48.808;9.182;2024-03-22T03:33:37;17.83;;;14.93;;
146;SDS011;45999;48.808;9.182;2024-03-22T03:36:03;18.00;;;14.50;;
146;SDS011;45999;48.808;9.182;2024-03-22T03:38:29;17.00;;;13.50;;
146;SDS011;45999;48.808;9.182;2024-03-22T03:40:55;15.60;;;13.93;;
146;SDS011;45999;48.808;9.182;2024-03-22T03:43:21;16.57;;;13.70;;
146;SDS011;45999;48.808;9.182;2024-03-22T03:45:47;15.83;;;13.70;;
146;SDS011;45999;48.808;9.182;2024-03-22T03:48:12;16.77;;;13.93;;
146;SDS011;45999;48.808;9.182;2024-03-22T03:50:39;15.57;;;13.63;;
146;SDS011;45999;48.808;9.182;2024-03-22T03:53:04;17.40;;;12.77;;
146;SDS011;45999;48.808;9.182;2024-03-22T03:55:31;15.17;;;13.57;;
146;SDS011;45999;48.808;9.182;2024-03-22T03:57:56;16.57;;;14.00;;
146;SDS011;45999;48.808;9.182;2024-03-22T04:00:22;14.20;;;12.33;;
146;SDS011;45999;48.808;9.182;2024-03-22T04:02:50;13.97;;;12.47;;
146;SDS011;45999;48.808;9.182;2024-03-22T04:05:17;13.77;;;12.03;;
146;SDS011;45999;48.808;9.182;2024-03-22T04:07:42;14.77;;;12.30;;
146;SDS011;45999;48.808;9.182;2024-03-22T04:10:08;15.63;;;13.47;;
146;SDS011;45999;48.808;9.182;2024-03-22T04:12:35;16.30;;;12.43;;
146;SDS011;45999;48.808;9.182;2024-03-22T04:15:01;16.60;;;13.03;;
146;SDS011;45999;48.808;9.182;2024-03-22T04:17:27;15.73;;;13.40;;
146;SDS011;45999;48.808;9.182;2024-03-22T04:19:52;14.67;;;12.93;;
146;SDS011;45999;48.808;9.182;2024-03-22T04:22:19;16.00;;;13.53;;
146;SDS011;45999;48.808;9.182;2024-03-22T04:24:44;16.40;;;12.77;;
146;SDS011;45999;48.808;9.182;2024-03-22T04:27:11;14.97;;;13.30;;
146;SDS011;45999;48.808;9.182;2024-03-22T04:29:36;14.30;;;12.80;;
146;SDS011;45999;48.808;9.182;2024-03-22T04:32:02;15.53;;;13.47;;
146;SDS011;45999;48.808;9.182;2024-03-22T04:34:28;14.63;;;12.80;;
146;SDS011;45999;48.808;9.182;2024-03-22T04:36:54;17.03;;;13.33;;
146;SDS011;45999;48.808;9.182;2024-03-22T04:39:21;15.83;;;13.70;;
146;SDS011;45999;48.808;9.182;2024-03-22T04:41:49;17.33;;;13.77;;
146;SDS011;45999;48.808;9.182;2024-03-22T04:44:14;17.37;;;13.37;;
146;SDS011;45999;48.808;9.182;2024-03-22T04:46:41;15.37;;;12.53;;
146;SDS011;45999;48.808;9.182;2024-03-22T04:49:07;14.97;;;13.40;;
146;SDS011;45999;48.808;9.182;2024-03-22T04:51:33;13.87;;;12.20;;
146;SDS011;45999;48.808;9.182;2024-03-22T04:53:58;13.93;;;12.43;;
146;SDS011;45999;48.808;9.182;2024-03-22T04:56:24;14.63;;;13.10;;
146;SDS011;45999;48.808;9.182;2024-03-22T04:58:50;13.97;;;12.53;;
146;SDS011;45999;48.808;9.182;2024-03-22T05:01:16;14.13;;;12.23;;
146;SDS011;45999;48.808;9.182;2024-03-22T05:03:41;13.63;;;11.90;;
146;SDS011;45999;48.808;9.182;2024-03-22T05:06:08;14.70;;;13.00;;
146;SDS011;45999;48.808;9.182;2024-03-22T05:08:34;14.57;;;12.50;;
146;SDS011;45999;48.808;9.182;2024-03-22T05:11:00;14.60;;;12.30;;
146;SDS011;45999;48.808;9.182;2024-03-22T05:13:25;15.47;;;12.17;;
146;SDS011;45999;48.808;9.182;2024-03-22T05:15:52;18.10;;;12.60;;
146;SDS011;45999;48.808;9.182;2024-03-22T05:18:18;15.10;;;12.20;;
146;SDS011;45999;48.808;9.182;2024-03-22T05:20:44;13.40;;;12.00;;
146;SDS011;45999;48.808;9.182;2024-03-22T05:23:10;16.90;;;12.37;;
146;SDS011;45999;48.808;9.182;2024-03-22T05:25:36;14.33;;;11.37;;
146;SDS011;45999;48.808;9.182;2024-03-22T05:28:01;14.03;;;11.70;;
146;SDS011;45999;48.808;9.182;2024-03-22T05:30:28;19.73;;;12.23;;
146;SDS011;45999;48.808;9.182;2024-03-22T05:32:53;15.67;;;12.00;;
146;SDS011;45999;48.808;9.182;2024-03-22T05:35:19;13.27;;;11.87;;
146;SDS011;45999;48.808;9.182;2024-03-22T05:37:45;14.53;;;12.13;;
146;SDS011;45999;48.808;9.182;2024-03-22T05:40:11;16.77;;;11.67;;
146;SDS011;45999;48.808;9.182;2024-03-22T05:42:37;15.20;;;11.40;;
146;SDS011;45999;48.808;9.182;2024-03-22T05:45:03;13.17;;;11.00;;
146;SDS011;45999;48.808;9.182;2024-03-22T05:47:29;14.60;;;11.07;;
146;SDS011;45999;48.808;9.182;2024-03-22T05:49:57;14.37;;;12.23;;
146;SDS011;45999;48.808;9.182;2024-03-22T05:52:23;13.07;;;11.43;;
146;SDS011;45999;48.808;9.182;2024-03-22T05:54:49;14.77;;;11.63;;
146;SDS011;45999;48.808;9.182;2024-03-22T05:57:15;15.23;;;11.50;;
146;SDS011;45999;48.808;9.182;2024-03-22T05:59:41;14.40;;;11.70;;
146;SDS011;45999;48.808;9.182;2024-03-22T06:02:07;17.30;;;11.87;;
146;SDS011;45999;48.808;9.182;2024-03-22T06:04:33;16.00;;;11.63;;
146;SDS011;45999;48.808;9.182;2024-03-22T06:06:59;15.27;;;12.10;;
146;SDS011;45999;48.808;9.182;2024-03-22T06:09:28;12.00;;;10.80;;
146;SDS011;45999;48.808;9.182;2024-03-22T06:12:01;18.93;;;11.57;;
146;SDS011;45999;48.808;9.182;2024-03-22T06:14:28;14.10;;;11.67;;
146;SDS011;45999;48.808;9.182;2024-03-22T06:16:54;13.33;;;11.37;;
146;SDS011;45999;48.808;9.182;2024-03-22T06:19:20;15.07;;;12.20;;
146;SDS011;45999;48.808;9.182;2024-03-22T06:21:46;15.93;;;12.27;;
146;SDS011;45999;48.808;9.182;2024-03-22T06:24:12;15.00;;;11.43;;
146;SDS011;45999;48.808;9.182;2024-03-22T06:26:38;12.97;;;11.07;;
146;SDS011;45999;48.808;9.182;2024-03-22T06:29:04;14.80;;;12.37;;
146;SDS011;45999;48.808;9.182;2024-03-22T06:31:29;12.90;;;11.67;;
146;SDS011;45999;48.808;9.182;2024-03-22T06:33:56;16.27;;;12.07;;
146;SDS011;45999;48.808;9.182;2024-03-22T06:36:26;16.90;;;12.10;;
146;SDS011;45999;48.808;9.182;2024-03-22T06:38:53;13.10;;;11.73;;
146;SDS011;45999;48.808;9.182;2024-03-22T06:41:18;12.83;;;11.43;;
146;SDS011;45999;48.808;9.182;2024-03-22T06:43:45;13.43;;;11.87;;
146;SDS011;45999;48.808;9.182;2024-03-22T06:46:11;16.77;;;12.13;;
146;SDS011;45999;48.808;9.182;2024-03-22T06:48:37;15.63;;;12.30;;
146;SDS011;45999;48.808;9.182;2024-03-22T06:51:02;16.30;;;12.50;;
146;SDS011;45999;48.808;9.182;2024-03-22T06:53:29;15.77;;;11.67;;
146;SDS011;45999;48.808;9.182;2024-03-22T06:55:54;16.20;;;11.27;;
146;SDS011;45999;48.808;9.182;2024-03-22T06:58:20;14.77;;;11.60;;
146;SDS011;45999;48.808;9.182;2024-03-22T07:00:46;18.93;;;11.93;;
146;SDS011;45999;48.808;9.182;2024-03-22T07:03:12;13.50;;;11.50;;
146;SDS011;45999;48.808;9.182;2024-03-22T07:05:37;12.33;;;11.00;;
146;SDS011;45999;48.808;9.182;2024-03-22T07:08:04;15.63;;;11.67;;
146;SDS011;45999;48.808;9.182;2024-03-22T07:10:29;15.23;;;11.53;;
146;SDS011;45999;48.808;9.182;2024-03-22T07:12:56;14.80;;;10.70;;
146;SDS011;45999;48.808;9.182;2024-03-22T07:15:24;12.37;;;11.03;;
146;SDS011;45999;48.808;9.182;2024-03-22T07:17:51;13.53;;;11.13;;
146;SDS011;45999;48.808;9.182;2024-03-22T07:20:16;12.50;;;10.20;;
146;SDS011;45999;48.808;9.182;2024-03-22T07:22:43;12.17;;;10.87;;
146;SDS011;45999;48.808;9.182;2024-03-22T07:25:09;11.90;;;10.67;;
146;SDS011;45999;48.808;9.182;2024-03-22T07:27:36;13.57;;;10.70;;
146;SDS011;45999;48.808;9.182;2024-03-22T07:30:02;13.60;;;10.73;;
146;SDS011;45999;48.808;9.182;2024-03-22T07:32:29;12.53;;;10.67;;
146;SDS011;45999;48.808;9.182;2024-03-22T07:34:55;12.17;;;10.87;;
146;SDS011;45999;48.808;9.182;2024-03-22T07:37:22;15.50;;;10.93;;
146;SDS011;45999;48.808;9.182;2024-03-22T07:39:47;12.40;;;11.17;;
146;SDS011;45999;48.808;9.182;2024-03-22T07:42:14;14.07;;;11.20;;
146;SDS011;45999;48.808;9.182;2024-03-22T07:44:39;11.63;;;10.10;;
146;SDS011;45999;48.808;9.182;2024-03-22T07:47:06;16.43;;;10.57;;
146;SDS011;45999;48.808;9.182;2024-03-22T07:49:31;14.43;;;11.23;;
146;SDS011;45999;48.808;9.182;2024-03-22T07:51:59;13.50;;;10.23;;
146;SDS011;45999;48.808;9.182;2024-03-22T07:54:24;14.67;;;10.07;;
146;SDS011;45999;48.808;9.182;2024-03-22T07:56:50;15.87;;;9.80;;
146;SDS011;45999;48.808;9.182;2024-03-22T07:59:16;12.67;;;10.07;;
146;SDS011;45999;48.808;9.182;2024-03-22T08:01:42;13.40;;;10.33;;
146;SDS011;45999;48.808;9.182;2024-03-22T08:04:08;12.47;;;10.40;;
146;SDS011;45999;48.808;9.182;2024-03-22T08:06:34;11.40;;;10.20;;
146;SDS011;45999;48.808;9.182;2024-03-22T08:08:59;14.40;;;10.63;;
146;SDS011;45999;48.808;9.182;2024-03-22T08:11:27;12.80;;;10.50;;
146;SDS011;45999;48.808;9.182;2024-03-22T08:13:53;11.37;;;9.73;;
146;SDS011;45999;48.808;9.182;2024-03-22T08:16:26;14.03;;;10.40;;
146;SDS011;45999;48.808;9.182;2024-03-22T08:18:52;12.13;;;10.87;;
146;SDS011;45999;48.808;9.182;2024-03-22T08:21:18;11.00;;;9.87;;
146;SDS011;45999;48.808;9.182;2024-03-22T08:23:44;12.83;;;10.40;;
146;SDS011;45999;48.808;9.182;2024-03-22T08:26:11;11.07;;;10.00;;
146;SDS011;45999;48.808;9.182;2024-03-22T08:28:36;13.53;;;9.63;;
146;SDS011;45999;48.808;9.182;2024-03-22T08:31:04;13.40;;;10.53;;
146;SDS011;45999;48.808;9.182;2024-03-22T08:33:29;13.07;;;10.27;;
146;SDS011;45999;48.808;9.182;2024-03-22T08:35:56;12.53;;;9.47;;
146;SDS011;45999;48.808;9.182;2024-03-22T08:38:21;13.23;;;9.33;;
146;SDS011;45999;48.808;9.182;2024-03-22T08:40:49;11.00;;;9.73;;
146;SDS011;45999;48.808;9.182;2024-03-22T08:43:15;11.90;;;9.33;;
146;SDS011;45999;48.808;9.182;2024-03-22T08:45:41;11.87;;;8.93;;
146;SDS011;45999;48.808;9.182;2024-03-22T08:48:07;14.30;;;9.77;;
146;SDS011;45999;48.808;9.182;2024-03-22T08:50:34;14.47;;;10.47;;
146;SDS011;45999;48.808;9.182;2024-03-22T08:52:59;13.13;;;9.83;;
146;SDS011;45999;48.808;9.182;2024-03-22T08:55:28;14.97;;;10.30;;
146;SDS011;45999;48.808;9.182;2024-03-22T08:57:53;12.93;;;10.20;;
146;SDS011;45999;48.808;9.182;2024-03-22T09:00:20;15.70;;;9.73;;
146;SDS011;45999;48.808;9.182;2024-03-22T09:02:45;11.63;;;10.27;;
146;SDS011;45999;48.808;9.182;2024-03-22T09:05:12;12.43;;;9.07;;
146;SDS011;45999;48.808;9.182;2024-03-22T09:07:37;12.50;;;9.50;;
146;SDS011;45999;48.808;9.182;2024-03-22T09:10:05;13.10;;;9.47;;
146;SDS011;45999;48.808;9.182;2024-03-22T09:12:32;12.53;;;9.60;;
146;SDS011;45999;48.808;9.182;2024-03-22T09:14:57;10.83;;;9.33;;
146;SDS011;45999;48.808;9.182;2024-03-22T09:17:24;12.70;;;9.40;;
146;SDS011;45999;48.808;9.182;2024-03-22T09:19:49;16.13;;;9.50;;
146;SDS011;45999;48.808;9.182;2024-03-22T09:22:15;9.67;;;8.67;;
146;SDS011;45999;48.808;9.182;2024-03-22T09:24:41;13.27;;;8.77;;
146;SDS011;45999;48.808;9.182;2024-03-22T09:27:07;12.83;;;9.60;;
146;SDS011;45999;48.808;9.182;2024-03-22T09:29:35;10.60;;;9.00;;
146;SDS011;45999;48.808;9.182;2024-03-22T09:32:02;10.90;;;8.07;;
146;SDS011;45999;48.808;9.182;2024-03-22T09:34:28;12.50;;;7.73;;
146;SDS011;45999;48.808;9.182;2024-03-22T09:36:55;7.07;;;4.53;;
146;SDS011;45999;48.808;9.182;2024-03-22T09:39:21;6.17;;;4.23;;
146;SDS011;45999;48.808;9.182;2024-03-22T09:41:47;3.87;;;3.43;;
146;SDS011;45999;48.808;9.182;2024-03-22T09:44:15;5.70;;;3.63;;
146;SDS011;45999;48.808;9.182;2024-03-22T09:46:46;7.17;;;3.87;;
146;SDS011;45999;48.808;9.182;2024-03-22T09:49:12;4.33;;;3.80;;
146;SDS011;45999;48.808;9.182;2024-03-22T09:51:39;5.93;;;3.40;;
146;SDS011;45999;48.808;9.182;2024-03-22T09:54:06;6.83;;;4.43;;
146;SDS011;45999;48.808;9.182;2024-03-22T09:56:34;4.10;;;3.23;;
146;SDS011;45999;48.808;9.182;2024-03-22T09:59:02;6.83;;;3.70;;
146;SDS011;45999;48.808;9.182;2024-03-22T10:01:29;5.33;;;3.53;;
146;SDS011;45999;48.808;9.182;2024-03-22T10:03:56;4.60;;;3.57;;
146;SDS011;45999;48.808;9.182;2024-03-22T10:06:23;3.63;;;3.13;;
146;SDS011;45999;48.808;9.182;2024-03-22T10:08:48;3.97;;;3.03;;
146;SDS011;45999;48.808;9.182;2024-03-22T10:11:15;5.30;;;3.63;;
146;SDS011;45999;48.808;9.182;2024-03-22T10:13:40;5.43;;;3.60;;
146;SDS011;45999;48.808;9.182;2024-03-22T10:16:07;6.13;;;3.40;;
146;SDS011;45999;48.808;9.182;2024-03-22T10:18:33;9.63;;;3.70;;
146;SDS011;45999;48.808;9.182;2024-03-22T10:21:00;6.47;;;3.50;;
146;SDS011;45999;48.808;9.182;2024-03-22T10:23:26;4.10;;;3.30;;
146;SDS011;45999;48.808;9.182;2024-03-22T10:25:52;4.03;;;3.63;;
146;SDS011;45999;48.808;9.182;2024-03-22T10:28:18;5.20;;;3.60;;
146;SDS011;45999;48.808;9.182;2024-03-22T10:30:44;5.00;;;3.80;;
146;SDS011;45999;48.808;9.182;2024-03-22T10:33:10;4.63;;;3.70;;
146;SDS011;45999;48.808;9.182;2024-03-22T10:35:37;4.00;;;3.60;;
146;SDS011;45999;48.808;9.182;2024-03-22T10:38:04;4.20;;;3.80;;
146;SDS011;45999;48.808;9.182;2024-03-22T10:40:36;5.97;;;4.10;;
146;SDS011;45999;48.808;9.182;2024-03-22T10:43:02;3.77;;;3.43;;
146;SDS011;45999;48.808;9.182;2024-03-22T10:45:28;7.77;;;4.17;;
146;SDS011;45999;48.808;9.182;2024-03-22T10:47:55;7.17;;;3.87;;
146;SDS011;45999;48.808;9.182;2024-03-22T10:50:22;5.43;;;3.83;;
146;SDS011;45999;48.808;9.182;2024-03-22T10:52:52;5.60;;;3.73;;
146;SDS011;45999;48.808;9.182;2024-03-22T10:55:25;6.03;;;3.60;;
146;SDS011;45999;48.808;9.182;2024-03-22T10:57:55;6.40;;;3.80;;
146;SDS011;45999;48.808;9.182;2024-03-22T11:00:29;4.70;;;3.20;;
146;SDS011;45999;48.808;9.182;2024-03-22T11:02:56;3.47;;;3.17;;
146;SDS011;45999;48.808;9.182;2024-03-22T11:05:23;4.23;;;3.23;;
146;SDS011;45999;48.808;9.182;2024-03-22T11:07:58;6.93;;;3.70;;
146;SDS011;45999;48.808;9.182;2024-03-22T11:10:28;6.67;;;4.23;;
146;SDS011;45999;48.808;9.182;2024-03-22T11:12:55;6.77;;;4.00;;
146;SDS011;45999;48.808;9.182;2024-03-22T11:15:22;6.27;;;3.50;;
146;SDS011;45999;48.808;9.182;2024-03-22T11:17:47;7.30;;;3.83;;
146;SDS011;45999;48.808;9.182;2024-03-22T11:20:14;7.57;;;3.90;;
146;SDS011;45999;48.808;9.182;2024-03-22T11:22:40;5.60;;;4.07;;
146;SDS011;45999;48.808;9.182;2024-03-22T11:25:07;5.97;;;3.80;;
146;SDS011;45999;48.808;9.182;2024-03-22T11:27:32;5.47;;;4.00;;
146;SDS011;45999;48.808;9.182;2024-03-22T11:29:59;7.03;;;4.20;;
146;SDS011;45999;48.808;9.182;2024-03-22T11:32:24;6.10;;;4.13;;
146;SDS011;45999;48.808;9.182;2024-03-22T11:34:53;6.87;;;3.83;;
146;SDS011;45999;48.808;9.182;2024-03-22T11:37:19;3.67;;;3.33;;
146;SDS011;45999;48.808;9.182;2024-03-22T11:39:45;5.40;;;3.50;;
146;SDS011;45999;48.808;9.182;2024-03-22T11:42:10;4.90;;;3.27;;
146;SDS011;45999;48.808;9.182;2024-03-22T11:44:37;6.10;;;3.40;;
146;SDS011;45999;48.808;9.182;2024-03-22T11:47:04;5.13;;;3.63;;
146;SDS011;45999;48.808;9.182;2024-03-22T11:49:31;4.27;;;3.53;;
146;SDS011;45999;48.808;9.182;2024-03-22T11:51:56;3.93;;;3.50;;
146;SDS011;45999;48.808;9.182;2024-03-22T11:54:23;4.03;;;3.10;;
146;SDS011;45999;48.808;9.182;2024-03-22T11:56:48;4.43;;;2.80;;
146;SDS011;45999;48.808;9.182;2024-03-22T11:59:19;4.70;;;2.40;;
146;SDS011;45999;48.808;9.182;2024-03-22T12:01:45;4.80;;;2.70;;
146;SDS011;45999;48.808;9.182;2024-03-22T12:04:11;4.17;;;3.20;;
146;SDS011;45999;48.808;9.182;2024-03-22T12:06:41;5.20;;;3.40;;
146;SDS011;45999;48.808;9.182;2024-03-22T12:09:13;3.67;;;3.00;;
146;SDS011;45999;48.808;9.182;2024-03-22T12:11:39;3.93;;;2.43;;
146;SDS011;45999;48.808;9.182;2024-03-22T12:14:06;4.77;;;2.90;;
146;SDS011;45999;48.808;9.182;2024-03-22T12:16:32;4.73;;;2.30;;
146;SDS011;45999;48.808;9.182;2024-03-22T12:18:58;3.57;;;2.43;;
146;SDS011;45999;48.808;9.182;2024-03-22T12:21:24;4.03;;;2.80;;
146;SDS011;45999;48.808;9.182;2024-03-22T12:23:50;2.90;;;2.50;;
146;SDS011;45999;48.808;9.182;2024-03-22T12:26:16;6.87;;;2.20;;
146;SDS011;45999;48.808;9.182;2024-03-22T12:28:42;4.60;;;2.47;;
146;SDS011;45999;48.808;9.182;2024-03-22T12:31:08;3.07;;;2.07;;
146;SDS011;45999;48.808;9.182;2024-03-22T12:33:35;4.00;;;2.43;;
146;SDS011;45999;48.808;9.182;2024-03-22T12:36:00;3.57;;;2.20;;
146;SDS011;45999;48.808;9.182;2024-03-22T12:38:27;4.27;;;2.33;;
146;SDS011;45999;48.808;9.182;2024-03-22T12:40:52;4.67;;;2.60;;
146;SDS011;45999;48.808;9.182;2024-03-22T12:43:18;3.10;;;2.00;;
146;SDS011;45999;48.808;9.182;2024-03-22T12:45:44;2.60;;;2.40;;
146;SDS011;45999;48.808;9.182;2024-03-22T12:48:10;5.40;;;2.97;;
146;SDS011;45999;48.808;9.182;2024-03-22T12:50:36;3.83;;;2.70;;
146;SDS011;45999;48.808;9.182;2024-03-22T12:53:02;4.20;;;2.80;;
146;SDS011;45999;48.808;9.182;2024-03-22T12:55:29;4.83;;;2.77;;
146;SDS011;45999;48.808;9.182;2024-03-22T12:57:56;3.73;;;3.07;;
146;SDS011;45999;48.808;9.182;2024-03-22T13:00:22;3.93;;;2.53;;
146;SDS011;45999;48.808;9.182;2024-03-22T13:02:49;5.13;;;2.70;;
146;SDS011;45999;48.808;9.182;2024-03-22T13:05:14;3.13;;;2.67;;
146;SDS011;45999;48.808;9.182;2024-03-22T13:07:41;3.77;;;2.53;;
146;SDS011;45999;48.808;9.182;2024-03-22T13:10:07;4.20;;;2.80;;
146;SDS011;45999;48.808;9.182;2024-03-22T13:12:34;3.57;;;3.20;;
146;SDS011;45999;48.808;9.182;2024-03-22T13:15:00;3.63;;;2.40;;
146;SDS011;45999;48.808;9.182;2024-03-22T13:17:27;4.83;;;2.50;;
146;SDS011;45999;48.808;9.182;2024-03-22T13:19:52;4.97;;;2.53;;
146;SDS011;45999;48.808;9.182;2024-03-22T13:22:18;3.03;;;2.30;;
146;SDS011;45999;48.808;9.182;2024-03-22T13:24:44;3.43;;;2.20;;
146;SDS011;45999;48.808;9.182;2024-03-22T13:27:11;3.93;;;2.50;;
146;SDS011;45999;48.808;9.182;2024-03-22T13:29:37;3.40;;;2.70;;
146;SDS011;45999;48.808;9.182;2024-03-22T13:32:04;3.20;;;2.20;;
146;SDS011;45999;48.808;9.182;2024-03-22T13:34:32;5.60;;;2.57;;
146;SDS011;45999;48.808;9.182;2024-03-22T13:36:58;3.43;;;2.33;;
146;SDS011;45999;48.808;9.182;2024-03-22T13:39:23;3.70;;;2.33;;
146;SDS011;45999;48.808;9.182;2024-03-22T13:41:50;3.87;;;2.47;;
146;SDS011;45999;48.808;9.182;2024-03-22T13:44:15;5.17;;;3.07;;
146;SDS011;45999;48.808;9.182;2024-03-22T13:46:42;4.50;;;2.93;;
146;SDS011;45999;48.808;9.182;2024-03-22T13:49:14;3.77;;;2.70;;
146;SDS011;45999;48.808;9.182;2024-03-22T13:51:41;3.57;;;3.00;;
146;SDS011;45999;48.808;9.182;2024-03-22T13:54:07;4.07;;;3.03;;
146;SDS011;45999;48.808;9.182;2024-03-22T13:56:33;3.40;;;3.00;;
146;SDS011;45999;48.808;9.182;2024-03-22T13:58:59;5.23;;;3.40;;
146;SDS011;45999;48.808;9.182;2024-03-22T14:01:25;3.80;;;3.27;;
146;SDS011;45999;48.808;9.182;2024-03-22T14:03:50;7.20;;;3.67;;
146;SDS011;45999;48.808;9.182;2024-03-22T14:06:17;4.83;;;3.90;;
146;SDS011;45999;48.808;9.182;2024-03-22T14:08:42;5.27;;;3.40;;
146;SDS011;45999;48.808;9.182;2024-03-22T14:11:08;10.67;;;3.83;;
146;SDS011;45999;48.808;9.182;2024-03-22T14:13:34;4.87;;;3.30;;
146;SDS011;45999;48.808;9.182;2024-03-22T14:16:00;4.40;;;3.13;;
146;SDS011;45999;48.808;9.182;2024-03-22T14:18:27;3.67;;;2.90;;
146;SDS011;45999;48.808;9.182;2024-03-22T14:20:53;3.30;;;2.63;;
146;SDS011;45999;48.808;9.182;2024-03-22T14:23:18;5.63;;;3.00;;
146;SDS011;45999;48.808;9.182;2024-03-22T14:25:45;4.30;;;2.87;;
146;SDS011;45999;48.808;9.182;2024-03-22T14:28:12;3.33;;;2.50;;
146;SDS011;45999;48.808;9.182;2024-03-22T14:30:39;4.57;;;2.33;;
146;SDS011;45999;48.808;9.182;2024-03-22T14:33:04;3.23;;;2.40;;
146;SDS011;45999;48.808;9.182;2024-03-22T14:35:30;3.63;;;2.23;;
146;SDS011;45999;48.808;9.182;2024-03-22T14:37:57;3.70;;;1.80;;
146;SDS011;45999;48.808;9.182;2024-03-22T14:40:22;5.37;;;2.17;;
146;SDS011;45999;48.808;9.182;2024-03-22T14:42:49;3.77;;;1.80;;
146;SDS011;45999;48.808;9.182;2024-03-22T14:45:14;3.60;;;1.80;;
146;SDS011;45999;48.808;9.182;2024-03-22T14:47:46;1.73;;;1.63;;
146;SDS011;45999;48.808;9.182;2024-03-22T14:50:11;1.50;;;1.40;;
146;SDS011;45999;48.808;9.182;2024-03-22T14:52:38;2.90;;;1.60;;